WAOO/BDJ METAR and TAF weather

Enter ICAO airport designator
Station Type Date Time Source
WAOO METAR 2022/11/30 10:30 UTC NOAA

WAOO 301030Z 20004KT 160V230 9999 SCT020 27/25 Q1006 NOSIG


Station Type Date Time Source
WAOO Decoded METAR 2022/11/30 10:30 UTC NOAA

Station name not available
Nov 30, 2022 - 05:30 AM EST / 2022.11.30 1030 UTC
Wind: from the SSW (200 degrees) at 5 MPH (4 KT) (direction variable):0
Visibility: greater than 7 mile(s):0
Sky conditions: partly cloudy
Temperature: 80 F (27 C)
Dew Point: 77 F (25 C)
Relative Humidity: 88%
Pressure (altimeter): 29.71 in. Hg (1006 hPa)
ob: WAOO 301030Z 20004KT 160V230 9999 SCT020 27/25 Q1006 NOSIG
cycle: 10

Station Type Date Time Source
WAOO TAF 2022/11/30 12:45 UTC NOAA

TAF WAOO 301100Z 3012/0112 25005KT 9999 SCT017
TEMPO 3014/3018 4000 RA

Example: see airport list